PAL912 RPLL-RPVB
Flight info
| Callsign | PAL912 |
|---|---|
| Flight time | 0h 52m |
| Altitude | 29000 |
| Route | VERDE2R VERDE W24 TAPER B472 LAMBO LAMBO3P |
| Aircraft | A320/M-SDE3FGHIRWY/LB1 |
Departure
| Time | 2026-04-26 13:56 |
|---|---|
| Airport | Ninoy Aquino International Airport (RPLL) |
Arrival
| Time | 2026-04-26 14:49 |
|---|---|
| Airport | Bacolod-Silay International Airport (RPVB) |
| Time | Latitude | Longitude | Altitude | Speed | Heading |
|---|---|---|---|---|---|
| 2026-04-26 13:35 | 14.50881 | 121.01370 | 69 ft | 0 kts | 330° |
| 2026-04-26 13:47 | 14.50870 | 121.01377 | 59 ft | 2 kts | 330° |
| 2026-04-26 13:47 | 14.50856 | 121.01385 | 62 ft | 2 kts | 333° |
| 2026-04-26 13:47 | 14.50849 | 121.01389 | 64 ft | 0 kts | 336° |
| 2026-04-26 13:48 | 14.50834 | 121.01394 | 63 ft | 2 kts | 353° |
| 2026-04-26 13:48 | 14.50818 | 121.01397 | 59 ft | 2 kts | 328° |
| 2026-04-26 13:48 | 14.50807 | 121.01409 | 64 ft | 2 kts | 263° |
| 2026-04-26 13:48 | 14.50808 | 121.01420 | 63 ft | 1 kts | 242° |
| 2026-04-26 13:49 | 14.50809 | 121.01420 | 63 ft | 0 kts | 241° |
| 2026-04-26 13:50 | 14.50808 | 121.01420 | 63 ft | 0 kts | 241° |
| 2026-04-26 13:50 | 14.50784 | 121.01377 | 59 ft | 13 kts | 240° |
| 2026-04-26 13:50 | 14.50725 | 121.01316 | 69 ft | 13 kts | 185° |
| 2026-04-26 13:50 | 14.50650 | 121.01285 | 63 ft | 12 kts | 240° |
| 2026-04-26 13:51 | 14.50611 | 121.01217 | 69 ft | 10 kts | 240° |
| 2026-04-26 13:51 | 14.50573 | 121.01147 | 60 ft | 14 kts | 240° |
| 2026-04-26 13:51 | 14.50518 | 121.01049 | 69 ft | 18 kts | 239° |
| 2026-04-26 13:51 | 14.50445 | 121.00920 | 66 ft | 23 kts | 240° |
| 2026-04-26 13:52 | 14.50358 | 121.00762 | 63 ft | 28 kts | 240° |
| 2026-04-26 13:52 | 14.50258 | 121.00583 | 68 ft | 29 kts | 240° |
| 2026-04-26 13:52 | 14.50153 | 121.00394 | 62 ft | 30 kts | 240° |
| 2026-04-26 13:52 | 14.50057 | 121.00223 | 68 ft | 25 kts | 240° |
| 2026-04-26 13:53 | 14.49973 | 121.00070 | 66 ft | 20 kts | 240° |
| 2026-04-26 13:53 | 14.49900 | 120.99969 | 67 ft | 16 kts | 204° |
| 2026-04-26 13:53 | 14.49869 | 120.99971 | 64 ft | 0 kts | 158° |
| 2026-04-26 13:53 | 14.49867 | 120.99972 | 65 ft | 0 kts | 158° |
| 2026-04-26 13:55 | 14.49808 | 121.00020 | 63 ft | 13 kts | 113° |
| 2026-04-26 13:55 | 14.49826 | 121.00079 | 67 ft | 13 kts | 60° |
| 2026-04-26 13:55 | 14.50397 | 121.01112 | 71 ft | 140 kts | 60° |
| 2026-04-26 13:56 | 14.50939 | 121.02094 | 303 ft | 162 kts | 63° |
| 2026-04-26 13:56 | 14.51496 | 121.03108 | 957 ft | 163 kts | 61° |
| 2026-04-26 13:56 | 14.52076 | 121.04120 | 1590 ft | 164 kts | 60° |
| 2026-04-26 13:56 | 14.52654 | 121.05135 | 2243 ft | 164 kts | 61° |
| 2026-04-26 13:57 | 14.53255 | 121.06197 | 2655 ft | 182 kts | 60° |
| 2026-04-26 13:57 | 14.53941 | 121.07402 | 2958 ft | 207 kts | 60° |
| 2026-04-26 13:57 | 14.54716 | 121.08757 | 3312 ft | 231 kts | 60° |
| 2026-04-26 13:57 | 14.55506 | 121.10139 | 3664 ft | 251 kts | 60° |
| 2026-04-26 13:58 | 14.56402 | 121.11704 | 4319 ft | 260 kts | 60° |
| 2026-04-26 13:58 | 14.57339 | 121.13328 | 5088 ft | 266 kts | 60° |
| 2026-04-26 13:58 | 14.58294 | 121.14977 | 5858 ft | 270 kts | 60° |
| 2026-04-26 13:58 | 14.59263 | 121.16658 | 6592 ft | 275 kts | 60° |
| 2026-04-26 13:59 | 14.60171 | 121.18411 | 7310 ft | 279 kts | 72° |
| 2026-04-26 13:59 | 14.60385 | 121.20393 | 8051 ft | 281 kts | 98° |
| 2026-04-26 13:59 | 14.59710 | 121.22282 | 8815 ft | 285 kts | 122° |
| 2026-04-26 14:00 | 14.55972 | 121.27318 | 10372 ft | 319 kts | 127° |
| 2026-04-26 14:00 | 14.54551 | 121.29182 | 10623 ft | 337 kts | 127° |
| 2026-04-26 14:00 | 14.53562 | 121.30434 | 10971 ft | 342 kts | 128° |
| 2026-04-26 14:01 | 14.51568 | 121.33042 | 11766 ft | 349 kts | 127° |
| 2026-04-26 14:01 | 14.50075 | 121.35035 | 12374 ft | 353 kts | 127° |
| 2026-04-26 14:01 | 14.48569 | 121.37058 | 12985 ft | 357 kts | 127° |
| 2026-04-26 14:01 | 14.47071 | 121.39083 | 13584 ft | 361 kts | 127° |
| 2026-04-26 14:02 | 14.45545 | 121.41157 | 14139 ft | 365 kts | 127° |
| 2026-04-26 14:02 | 14.43991 | 121.43240 | 14656 ft | 368 kts | 131° |
| 2026-04-26 14:02 | 14.42005 | 121.44961 | 15159 ft | 372 kts | 150° |
| 2026-04-26 14:02 | 14.39625 | 121.45908 | 15649 ft | 374 kts | 169° |
| 2026-04-26 14:03 | 14.37029 | 121.46005 | 16148 ft | 376 kts | 189° |
| 2026-04-26 14:03 | 14.34536 | 121.45211 | 16650 ft | 377 kts | 206° |
| 2026-04-26 14:03 | 14.32167 | 121.44016 | 17174 ft | 380 kts | 207° |
| 2026-04-26 14:03 | 14.29788 | 121.42809 | 17695 ft | 382 kts | 207° |
| 2026-04-26 14:04 | 14.27390 | 121.41594 | 18209 ft | 385 kts | 207° |
| 2026-04-26 14:04 | 14.24974 | 121.40377 | 18655 ft | 388 kts | 207° |
| 2026-04-26 14:04 | 14.22537 | 121.39156 | 19080 ft | 391 kts | 207° |
| 2026-04-26 14:04 | 14.20082 | 121.37930 | 19509 ft | 394 kts | 207° |
| 2026-04-26 14:05 | 14.17636 | 121.36711 | 19844 ft | 397 kts | 207° |
| 2026-04-26 14:05 | 14.15137 | 121.35465 | 19938 ft | 398 kts | 207° |
| 2026-04-26 14:05 | 14.12647 | 121.34221 | 19958 ft | 398 kts | 207° |
| 2026-04-26 14:05 | 14.10156 | 121.32977 | 19958 ft | 398 kts | 207° |
| 2026-04-26 14:06 | 14.07657 | 121.31729 | 19961 ft | 398 kts | 207° |
| 2026-04-26 14:06 | 14.05158 | 121.30481 | 19959 ft | 399 kts | 207° |
| 2026-04-26 14:06 | 14.02661 | 121.29233 | 19955 ft | 399 kts | 207° |
| 2026-04-26 14:06 | 14.00165 | 121.27984 | 19955 ft | 399 kts | 207° |
| 2026-04-26 14:07 | 13.97673 | 121.26736 | 19957 ft | 399 kts | 207° |
| 2026-04-26 14:07 | 13.95175 | 121.25487 | 19953 ft | 399 kts | 207° |
| 2026-04-26 14:07 | 13.92676 | 121.24242 | 19954 ft | 399 kts | 207° |
| 2026-04-26 14:07 | 13.90170 | 121.22993 | 20127 ft | 402 kts | 207° |
| 2026-04-26 14:08 | 13.87647 | 121.21737 | 20591 ft | 404 kts | 207° |
| 2026-04-26 14:08 | 13.85107 | 121.20471 | 21027 ft | 407 kts | 207° |
| 2026-04-26 14:08 | 13.82581 | 121.19212 | 21449 ft | 410 kts | 207° |
| 2026-04-26 14:08 | 13.80006 | 121.17928 | 21869 ft | 413 kts | 207° |
| 2026-04-26 14:09 | 13.77411 | 121.16636 | 22282 ft | 416 kts | 207° |
| 2026-04-26 14:09 | 13.74801 | 121.15338 | 22691 ft | 418 kts | 207° |
| 2026-04-26 14:09 | 13.72170 | 121.14030 | 23094 ft | 421 kts | 207° |
| 2026-04-26 14:09 | 13.69528 | 121.12714 | 23482 ft | 424 kts | 207° |
| 2026-04-26 14:10 | 13.66863 | 121.11385 | 23806 ft | 426 kts | 207° |
| 2026-04-26 14:10 | 13.64188 | 121.10053 | 24153 ft | 428 kts | 207° |
| 2026-04-26 14:10 | 13.61507 | 121.08721 | 24501 ft | 429 kts | 207° |
| 2026-04-26 14:10 | 13.58813 | 121.07383 | 24844 ft | 430 kts | 207° |
| 2026-04-26 14:11 | 13.53215 | 121.05473 | 25494 ft | 436 kts | 188° |
| 2026-04-26 14:11 | 13.50177 | 121.05412 | 25826 ft | 439 kts | 175° |
| 2026-04-26 14:11 | 13.47172 | 121.06058 | 26150 ft | 443 kts | 162° |
| 2026-04-26 14:12 | 13.44371 | 121.07397 | 26457 ft | 447 kts | 149° |
| 2026-04-26 14:12 | 13.41829 | 121.09171 | 26752 ft | 449 kts | 147° |
| 2026-04-26 14:12 | 13.39249 | 121.10996 | 27053 ft | 450 kts | 147° |
| 2026-04-26 14:12 | 13.36661 | 121.12819 | 27353 ft | 451 kts | 147° |
| 2026-04-26 14:13 | 13.31458 | 121.16468 | 27936 ft | 454 kts | 147° |
| 2026-04-26 14:13 | 13.28844 | 121.18300 | 28217 ft | 455 kts | 147° |
| 2026-04-26 14:13 | 13.26219 | 121.20139 | 28491 ft | 457 kts | 147° |
| 2026-04-26 14:14 | 13.23592 | 121.21980 | 28766 ft | 458 kts | 148° |
| 2026-04-26 14:14 | 13.20957 | 121.23830 | 28935 ft | 459 kts | 148° |
| 2026-04-26 14:14 | 13.18386 | 121.25635 | 28969 ft | 447 kts | 148° |
| 2026-04-26 14:15 | 13.13277 | 121.29219 | 28971 ft | 439 kts | 148° |
| 2026-04-26 14:15 | 13.08262 | 121.32730 | 28972 ft | 438 kts | 148° |
| 2026-04-26 14:16 | 13.03225 | 121.36254 | 28968 ft | 438 kts | 148° |
| 2026-04-26 14:16 | 12.98196 | 121.39770 | 28964 ft | 438 kts | 148° |
| 2026-04-26 14:17 | 12.93159 | 121.43294 | 28957 ft | 437 kts | 147° |
| 2026-04-26 14:17 | 12.88139 | 121.46809 | 28950 ft | 437 kts | 147° |
| 2026-04-26 14:18 | 12.83141 | 121.50298 | 28938 ft | 437 kts | 148° |
| 2026-04-26 14:18 | 12.78117 | 121.53804 | 28933 ft | 437 kts | 147° |
| 2026-04-26 14:19 | 12.73100 | 121.57309 | 28930 ft | 437 kts | 147° |
| 2026-04-26 14:19 | 12.68069 | 121.60821 | 28923 ft | 437 kts | 147° |
| 2026-04-26 14:20 | 12.63045 | 121.64322 | 28923 ft | 437 kts | 147° |
| 2026-04-26 14:20 | 12.58017 | 121.67824 | 28921 ft | 437 kts | 147° |
| 2026-04-26 14:21 | 12.53014 | 121.71309 | 28917 ft | 437 kts | 147° |
| 2026-04-26 14:21 | 12.47987 | 121.74807 | 28918 ft | 437 kts | 147° |
| 2026-04-26 14:22 | 12.42964 | 121.78302 | 28912 ft | 436 kts | 147° |
| 2026-04-26 14:22 | 12.37942 | 121.81800 | 28911 ft | 436 kts | 148° |
| 2026-04-26 14:23 | 12.32563 | 121.84502 | 28908 ft | 433 kts | 159° |
| 2026-04-26 14:23 | 12.27007 | 121.86913 | 28912 ft | 433 kts | 158° |
| 2026-04-26 14:24 | 12.21460 | 121.89340 | 28906 ft | 433 kts | 158° |
| 2026-04-26 14:24 | 12.16000 | 121.91734 | 28906 ft | 434 kts | 158° |
| 2026-04-26 14:25 | 12.10452 | 121.94159 | 28905 ft | 433 kts | 158° |
| 2026-04-26 14:25 | 12.04901 | 121.96573 | 28903 ft | 433 kts | 159° |
| 2026-04-26 14:26 | 11.99349 | 121.98985 | 28902 ft | 433 kts | 159° |
| 2026-04-26 14:26 | 11.94745 | 122.00989 | 28903 ft | 433 kts | 159° |
| 2026-04-26 14:27 | 11.88297 | 122.03801 | 28901 ft | 433 kts | 159° |
| 2026-04-26 14:27 | 11.82751 | 122.06220 | 28903 ft | 433 kts | 159° |
| 2026-04-26 14:28 | 11.79039 | 122.07835 | 28904 ft | 434 kts | 159° |
| 2026-04-26 14:28 | 11.76470 | 122.08952 | 28906 ft | 433 kts | 159° |
| 2026-04-26 14:29 | 11.70899 | 122.11372 | 28925 ft | 441 kts | 159° |
| 2026-04-26 14:29 | 11.68047 | 122.12607 | 28785 ft | 449 kts | 159° |
| 2026-04-26 14:29 | 11.65175 | 122.13853 | 28029 ft | 445 kts | 159° |
| 2026-04-26 14:29 | 11.62344 | 122.15082 | 26937 ft | 440 kts | 159° |
| 2026-04-26 14:30 | 11.59550 | 122.16296 | 26035 ft | 432 kts | 158° |
| 2026-04-26 14:30 | 11.56847 | 122.17473 | 25588 ft | 414 kts | 158° |
| 2026-04-26 14:30 | 11.54252 | 122.18604 | 25108 ft | 400 kts | 158° |
| 2026-04-26 14:30 | 11.51731 | 122.19702 | 24648 ft | 386 kts | 158° |
| 2026-04-26 14:31 | 11.49327 | 122.20747 | 24205 ft | 374 kts | 158° |
| 2026-04-26 14:31 | 11.46936 | 122.21785 | 23772 ft | 373 kts | 158° |
| 2026-04-26 14:31 | 11.44543 | 122.22822 | 23293 ft | 372 kts | 158° |
| 2026-04-26 14:31 | 11.42167 | 122.23851 | 22842 ft | 371 kts | 158° |
| 2026-04-26 14:32 | 11.39800 | 122.24875 | 22389 ft | 369 kts | 157° |
| 2026-04-26 14:32 | 11.37437 | 122.25895 | 21949 ft | 367 kts | 157° |
| 2026-04-26 14:32 | 11.35091 | 122.26911 | 21502 ft | 366 kts | 157° |
| 2026-04-26 14:32 | 11.32753 | 122.27927 | 21057 ft | 365 kts | 156° |
| 2026-04-26 14:33 | 11.30420 | 122.28938 | 20603 ft | 364 kts | 156° |
| 2026-04-26 14:33 | 11.28088 | 122.29950 | 20146 ft | 364 kts | 156° |
| 2026-04-26 14:33 | 11.25759 | 122.30959 | 19685 ft | 364 kts | 156° |
| 2026-04-26 14:33 | 11.23429 | 122.31968 | 19217 ft | 363 kts | 156° |
| 2026-04-26 14:34 | 11.21167 | 122.32947 | 18783 ft | 354 kts | 156° |
| 2026-04-26 14:34 | 11.18928 | 122.33916 | 18605 ft | 346 kts | 156° |
| 2026-04-26 14:34 | 11.16725 | 122.34872 | 18437 ft | 340 kts | 154° |
| 2026-04-26 14:34 | 11.14655 | 122.36025 | 18144 ft | 341 kts | 148° |
| 2026-04-26 14:35 | 11.12615 | 122.37272 | 17743 ft | 339 kts | 147° |
| 2026-04-26 14:35 | 11.10615 | 122.38499 | 17162 ft | 334 kts | 147° |
| 2026-04-26 14:35 | 11.08638 | 122.39711 | 16585 ft | 329 kts | 147° |
| 2026-04-26 14:35 | 11.06686 | 122.40906 | 16098 ft | 326 kts | 147° |
| 2026-04-26 14:36 | 11.04782 | 122.42068 | 15626 ft | 323 kts | 147° |
| 2026-04-26 14:36 | 11.02859 | 122.43243 | 15147 ft | 320 kts | 147° |
| 2026-04-26 14:36 | 11.00957 | 122.44405 | 14686 ft | 320 kts | 147° |
| 2026-04-26 14:36 | 10.99035 | 122.45579 | 14242 ft | 322 kts | 147° |
| 2026-04-26 14:37 | 10.97123 | 122.46745 | 13974 ft | 319 kts | 147° |
| 2026-04-26 14:37 | 10.95245 | 122.47888 | 13613 ft | 318 kts | 147° |
| 2026-04-26 14:37 | 10.93344 | 122.49045 | 13236 ft | 316 kts | 147° |
| 2026-04-26 14:37 | 10.91475 | 122.50183 | 12625 ft | 312 kts | 147° |
| 2026-04-26 14:38 | 10.89615 | 122.51319 | 11980 ft | 309 kts | 147° |
| 2026-04-26 14:38 | 10.87878 | 122.52564 | 11388 ft | 302 kts | 135° |
| 2026-04-26 14:38 | 10.86506 | 122.54146 | 10915 ft | 296 kts | 125° |
| 2026-04-26 14:38 | 10.85270 | 122.55813 | 10496 ft | 293 kts | 125° |
| 2026-04-26 14:39 | 10.84034 | 122.57465 | 10111 ft | 295 kts | 125° |
| 2026-04-26 14:39 | 10.82803 | 122.59106 | 9752 ft | 294 kts | 125° |
| 2026-04-26 14:39 | 10.81565 | 122.60757 | 9297 ft | 294 kts | 125° |
| 2026-04-26 14:39 | 10.80339 | 122.62392 | 9025 ft | 288 kts | 125° |
| 2026-04-26 14:40 | 10.79126 | 122.64012 | 8594 ft | 288 kts | 125° |
| 2026-04-26 14:40 | 10.77918 | 122.65627 | 8193 ft | 287 kts | 125° |
| 2026-04-26 14:40 | 10.76720 | 122.67228 | 7841 ft | 284 kts | 125° |
| 2026-04-26 14:40 | 10.75525 | 122.68827 | 7488 ft | 281 kts | 125° |
| 2026-04-26 14:41 | 10.74354 | 122.70390 | 7045 ft | 276 kts | 125° |
| 2026-04-26 14:41 | 10.73229 | 122.71892 | 6522 ft | 271 kts | 125° |
| 2026-04-26 14:41 | 10.72104 | 122.73390 | 6081 ft | 261 kts | 124° |
| 2026-04-26 14:41 | 10.71021 | 122.74832 | 5664 ft | 251 kts | 124° |
| 2026-04-26 14:42 | 10.69978 | 122.76222 | 5273 ft | 245 kts | 124° |
| 2026-04-26 14:42 | 10.68946 | 122.77601 | 4881 ft | 244 kts | 124° |
| 2026-04-26 14:42 | 10.67922 | 122.78970 | 4473 ft | 243 kts | 124° |
| 2026-04-26 14:42 | 10.66922 | 122.80352 | 4082 ft | 242 kts | 119° |
| 2026-04-26 14:43 | 10.66234 | 122.81899 | 3679 ft | 240 kts | 104° |
| 2026-04-26 14:43 | 10.65972 | 122.83562 | 3313 ft | 236 kts | 90° |
| 2026-04-26 14:43 | 10.65930 | 122.85180 | 3256 ft | 222 kts | 91° |
| 2026-04-26 14:43 | 10.65871 | 122.86706 | 3176 ft | 217 kts | 91° |
| 2026-04-26 14:44 | 10.65807 | 122.88211 | 3090 ft | 207 kts | 91° |
| 2026-04-26 14:44 | 10.65746 | 122.89637 | 3001 ft | 198 kts | 91° |
| 2026-04-26 14:44 | 10.65688 | 122.91017 | 2994 ft | 195 kts | 91° |
| 2026-04-26 14:44 | 10.65632 | 122.92389 | 3006 ft | 192 kts | 91° |
| 2026-04-26 14:45 | 10.65716 | 122.93675 | 2936 ft | 177 kts | 77° |
| 2026-04-26 14:45 | 10.65992 | 122.94464 | 2629 ft | 182 kts | 63° |
| 2026-04-26 14:45 | 10.67089 | 122.95732 | 2250 ft | 174 kts | 36° |
| 2026-04-26 14:45 | 10.68090 | 122.96321 | 2022 ft | 157 kts | 33° |
| 2026-04-26 14:46 | 10.68980 | 122.96843 | 1851 ft | 145 kts | 32° |
| 2026-04-26 14:46 | 10.69833 | 122.97342 | 1658 ft | 139 kts | 33° |
| 2026-04-26 14:46 | 10.70665 | 122.97828 | 1488 ft | 137 kts | 32° |
| 2026-04-26 14:46 | 10.71482 | 122.98305 | 1323 ft | 137 kts | 31° |
| 2026-04-26 14:47 | 10.72316 | 122.98792 | 1139 ft | 137 kts | 32° |
| 2026-04-26 14:47 | 10.73141 | 122.99273 | 967 ft | 137 kts | 31° |
| 2026-04-26 14:47 | 10.73962 | 122.99752 | 794 ft | 135 kts | 32° |
| 2026-04-26 14:47 | 10.74784 | 123.00232 | 625 ft | 138 kts | 31° |
| 2026-04-26 14:48 | 10.75616 | 123.00713 | 425 ft | 139 kts | 29° |
| 2026-04-26 14:48 | 10.76440 | 123.01179 | 276 ft | 135 kts | 32° |
| 2026-04-26 14:48 | 10.77245 | 123.01664 | 93 ft | 133 kts | 31° |
| 2026-04-26 14:48 | 10.77940 | 123.02069 | 87 ft | 85 kts | 30° |
| 2026-04-26 14:49 | 10.78242 | 123.02249 | 86 ft | 32 kts | 30° |
| 2026-04-26 14:49 | 10.78331 | 123.02305 | 87 ft | 4 kts | 5° |
| 2026-04-26 14:49 | 10.78332 | 123.02298 | 86 ft | 0 kts | 273° |
| 2026-04-26 14:49 | 10.78329 | 123.02293 | 85 ft | 3 kts | 233° |
| 2026-04-26 14:50 | 10.78257 | 123.02252 | 84 ft | 20 kts | 205° |
| 2026-04-26 14:50 | 10.78090 | 123.02163 | 86 ft | 33 kts | 213° |
| 2026-04-26 14:50 | 10.77859 | 123.02024 | 87 ft | 42 kts | 208° |
| 2026-04-26 14:50 | 10.77689 | 123.01896 | 86 ft | 24 kts | 250° |
| 2026-04-26 14:51 | 10.77726 | 123.01795 | 84 ft | 8 kts | 297° |
| 2026-04-26 14:51 | 10.77748 | 123.01745 | 85 ft | 7 kts | 286° |
| 2026-04-26 14:51 | 10.77741 | 123.01705 | 85 ft | 6 kts | 228° |
| 2026-04-26 14:52 | 10.77726 | 123.01689 | 84 ft | 5 kts | 226° |
| 2026-04-26 14:52 | 10.77710 | 123.01674 | 84 ft | 6 kts | 218° |
| 2026-04-26 14:53 | 10.77686 | 123.01659 | 85 ft | 8 kts | 208° |
| 2026-04-26 14:54 | 10.77663 | 123.01647 | 84 ft | 8 kts | 208° |
| 2026-04-26 14:54 | 10.77647 | 123.01638 | 84 ft | 2 kts | 209° |
| 2026-04-26 14:54 | 10.77644 | 123.01632 | 84 ft | 2 kts | 246° |
| 2026-04-26 14:55 | 10.77653 | 123.01617 | 83 ft | 4 kts | 302° |
| 2026-04-26 14:55 | 10.77666 | 123.01594 | 84 ft | 4 kts | 299° |
| 2026-04-26 14:55 | 10.77679 | 123.01571 | 85 ft | 3 kts | 300° |
| 2026-04-26 14:55 | 10.77681 | 123.01567 | 85 ft | 0 kts | 300° |